Flight Track Log - Related Links

Times and Time Zones

All times are in EDT time to prevent confusion due to time zone crossing. See the EJA929 flight status page for this flight to view local times or setup timezone preferences in your user account.

Time Position Orientation Groundspeed Altitude Reporting Facility
EDT Latitude Longitude Course Direction KTS MPH feet Rate Location/Type
Fri 03:07:19 PM 41.0833 -73.7833 255° West 212 244 4,600  Level New York TRACON
Fri 03:08:19 PM 41.0667 -73.8667 255° West 246 283 6,900 1,210 Climbing New York TRACON
Fri 03:09:18 PM 41.0333 -73.9500 242° Southwest 251 289 7,000 1,050 Climbing New York TRACON
Fri 03:10:19 PM 41.0000 -74.0333 242° Southwest 267 307 9,000 2,380 Climbing New York TRACON
Fri 03:11:19 PM 40.9667 -74.1167 242° Southwest 280 322 11,800 2,700 Climbing New York TRACON
Fri 03:12:19 PM 40.9167 -74.2167 237° Southwest 313 360 14,400 2,211 Climbing New York TRACON
Fri 03:13:13 PM 40.9000 -74.3167 258° West 336 387 16,000 842 Climbing New York TRACON
Fri 03:14:13 PM 40.8667 -74.4500 252° West 357 411 16,000  Level New York TRACON
Fri 03:16:16 PM 40.7925 -74.6853 247° West 394 453 16,000 -33 Level New York Center
Fri 03:17:16 PM 40.7544 -74.8256 250° West 380 437 15,900  Descending New York Center
Fri 03:18:16 PM 40.7186 -74.9575 250° West 380 437 16,000 353 Climbing New York Center
Fri 03:19:15 PM 40.6761 -75.0944 248° West 391 450 16,600 1,210 Climbing New York Center
Fri 03:20:15 PM 40.6242 -75.2058 238° Southwest 396 456 18,400 1,587 Climbing New York Center
Fri 03:21:16 PM 40.5625 -75.3467 240° Southwest 401 461 19,800 787 Climbing New York Center
Fri 03:22:17 PM 40.5056 -75.4686 238° Southwest 406 467 20,000 101 Climbing New York Center
Fri 03:23:15 PM 40.4553 -75.5797 239° Southwest 394 453 20,000 -51 Level New York Center
Fri 03:24:15 PM 40.4236 -75.6919 250° West 337 388 19,900  Descending New York Center
Fri 03:25:17 PM 40.4228 -75.8064 269° West 315 362 20,000  Climbing New York Center
Fri 03:26:17 PM 40.3894 -75.9050 246° West 313 360 19,900  Descending New York Center
Fri 03:27:16 PM 40.3297 -75.9850 226° Southwest 301 346 20,000 50 Climbing New York Center
Fri 03:28:16 PM 40.2739 -76.0650 228° Southwest 301 346 20,000 -446 Level New York Center
Fri 03:29:17 PM 40.2094 -76.1581 228° Southwest 322 371 19,100 -1,008 Descending New York Center
Fri 03:30:15 PM 40.1442 -76.2589 230° Southwest 366 421 18,000 -1,017 Descending New York Center
Fri 03:31:15 PM 40.0917 -76.3550 234° Southwest 371 427 17,100 -1,140 Descending New York Center
Fri 03:32:16 PM 40.0336 -76.4833 239° Southwest 376 433 15,700 -477 Descending New York Center
Fri 03:34:00 PM 39.9326 -76.6569 241° Southwest  Level FlightAware Approximate
Fri 03:35:39 PM 39.8500 -76.8833 241° Southwest 386 444 15,000  Level Potomac TRACON
Fri 03:36:39 PM 39.8000 -76.9833 237° Southwest 342 394 15,000 -967 Level Potomac TRACON
Fri 03:38:39 PM 39.7167 -77.1667 239° Southwest 293 337 12,100 -1,500 Descending Potomac TRACON
Fri 03:39:39 PM 39.6667 -77.2500 232° Southwest 288 331 10,500 -1,800 Descending Potomac TRACON
Fri 03:40:39 PM 39.6167 -77.3333 232° Southwest 295 339 8,500 -1,850 Descending Potomac TRACON
Fri 03:41:39 PM 39.5333 -77.3500 189° South 300 345 6,800 -1,500 Descending Potomac TRACON
Fri 03:42:39 PM 39.4500 -77.3500 180° South 299 344 5,500 -900 Descending Potomac TRACON
Fri 03:43:39 PM 39.3667 -77.3667 189° South 291 335 5,000 -375 Descending Potomac TRACON
Fri 03:45:00 PM 39.2483 -77.3500 180° South  Level FlightAware Approximate
Fri 03:46:39 PM 39.1333 -77.3667 345° North 274 315 4,000  Level Potomac TRACON
Fri 03:47:40 PM 39.0667 -77.3500 169° South 277 319 4,000 -198 Level Potomac TRACON
Fri 03:48:40 PM 38.9833 -77.3667 189° South 244 281 3,600 -450 Descending Potomac TRACON
Fri 03:49:40 PM 38.9167 -77.3500 169° South 245 282 3,100 -300 Descending Potomac TRACON
Fri 03:50:40 PM 38.8500 -77.3667 191° South 240 276 3,000 -200 Descending Potomac TRACON
Fri 03:51:40 PM 38.7833 -77.3667 180° South 245 282 2,700 -400 Descending Potomac TRACON
Fri 03:52:00 PM 38.9474 -77.4599 345° North  Level Estimated
Fri 03:52:40 PM 38.7167 -77.3667 180° South 239 275 2,200  Level Potomac TRACON
Fri 03:53:40 PM 38.7333 -77.4167 293° West 146 168 2,000 -100 Descending Potomac TRACON
Fri 03:54:40 PM 38.7667 -77.4333 339° North 149 171 2,000  Level Potomac TRACON
Fri 03:55:40 PM 38.8167 -77.4333 360° North 153 176 2,000 -50 Level Potomac TRACON
Fri 03:56:41 PM 38.8500 -77.4333 360° North 139 160 1,900 -98 Descending Potomac TRACON

Login

Don't have an account? Register now (free) for customized features, flight alerts, and more!